Terminal Aerodrome Forecast
Issued by NWS

Home | Current Version | Previous Version | Text Only | Print | Product List | Glossary On
Versions: 1 2 3 4 5 6 7 8 9 10 11 12
247
FTPA31 PHFO 081730
TAFHJH
TAF
PHJH 081730Z 0818/0918 03015KT P6SM SCT035
     FM082000 04015G22KT P6SM SCT035
     FM090400 03013KT P6SM SCT035
      AMD NOT SKED=

USA.gov is the U.S. government's official web portal to all federal, state and local government web resources and services.